Time;durP1;ratioP1;P1;durP2;ratioP2;P2;SDS_P1;SDS_P2;PMS_P1;PMS_P2;Temp;Humidity;BMP_temperature;BMP_pressure;BME280_temperature;BME280_humidity;BME280_pressure;Samples;Min_cycle;Max_cycle;Signal;HPM_P1;HPM_P2
2023/03/02 00:00:46;;;;;;;6.25;5.65;;;19.30;48.30;;;;;;4980682;28;20279;-67
2023/03/02 00:03:17;;;;;;;6.30;5.70;;;19.20;48.20;;;;;;4980313;28;20326;-67
2023/03/02 00:05:46;;;;;;;5.40;4.90;;;19.30;48.30;;;;;;4980453;28;20192;-67
2023/03/02 00:08:15;;;;;;;6.20;5.55;;;19.30;48.30;;;;;;4980315;28;20310;-68
2023/03/02 00:10:41;;;;;;;6.07;5.47;;;19.30;48.30;;;;;;4980290;28;20216;-68
2023/03/02 00:13:07;;;;;;;5.57;5.07;;;19.30;48.20;;;;;;4980426;28;20190;-68
2023/03/02 00:15:33;;;;;;;6.15;5.55;;;19.30;48.30;;;;;;4996311;28;20206;-68
2023/03/02 00:17:59;;;;;;;5.72;5.20;;;19.30;48.30;;;;;;4980169;28;20737;-67
2023/03/02 00:20:25;;;;;;;5.72;5.32;;;19.30;48.30;;;;;;4992882;28;20192;-68
2023/03/02 00:22:51;;;;;;;6.03;5.43;;;19.30;48.20;;;;;;4975895;28;20287;-67
2023/03/02 00:25:17;;;;;;;5.90;5.38;;;19.30;48.20;;;;;;4992802;28;20288;-68
2023/03/02 00:27:44;;;;;;;5.68;5.18;;;19.30;48.20;;;;;;4979926;28;20274;-68
2023/03/02 00:30:12;;;;;;;6.32;5.75;;;19.30;48.20;;;;;;4979896;28;20240;-67
2023/03/02 00:32:38;;;;;;;6.30;5.65;;;19.30;48.20;;;;;;4979826;28;20187;-67
2023/03/02 00:35:05;;;;;;;5.95;5.30;;;19.30;48.20;;;;;;4979733;28;20199;-68
2023/03/02 00:37:33;;;;;;;5.72;5.22;;;19.30;48.20;;;;;;4979912;28;20546;-68
2023/03/02 00:39:59;;;;;;;6.80;5.90;;;19.30;48.20;;;;;;4996046;28;20234;-68
2023/03/02 00:42:25;;;;;;;7.22;6.55;;;19.30;48.20;;;;;;4979743;28;20184;-69
2023/03/02 00:44:52;;;;;;;5.72;5.22;;;19.30;48.20;;;;;;4979504;28;20199;-68
2023/03/02 00:47:18;;;;;;;6.28;5.70;;;19.30;48.20;;;;;;4979146;28;20594;-68
2023/03/02 00:49:48;;;;;;;6.20;5.60;;;19.30;48.30;;;;;;4979579;28;20254;-68
2023/03/02 00:52:15;;;;;;;5.88;5.25;;;19.20;48.20;;;;;;4979534;28;20180;-69
2023/03/02 00:54:42;;;;;;;5.95;5.25;;;19.20;48.20;;;;;;4992446;28;20203;-68
2023/03/02 00:57:08;;;;;;;6.10;5.50;;;19.20;48.20;;;;;;4979298;28;20204;-68
2023/03/02 00:59:39;;;;;;;6.05;5.53;;;19.30;48.30;;;;;;4979448;28;20188;-69
2023/03/02 01:02:20;;;;;;;6.28;5.57;;;19.20;48.20;;;;;;4981700;28;20254;-67
2023/03/02 01:04:47;;;;;;;6.00;5.40;;;19.30;48.20;;;;;;4979213;28;20235;-67
2023/03/02 01:07:17;;;;;;;5.65;5.10;;;19.20;48.70;;;;;;4979054;28;20220;-67
2023/03/02 01:09:44;;;;;;;5.97;5.28;;;19.30;48.20;;;;;;4979330;28;20262;-68
2023/03/02 01:12:11;;;;;;;6.25;5.30;;;19.30;48.20;;;;;;4979267;28;20196;-67
2023/03/02 01:14:47;;;;;;;6.32;5.72;;;19.30;48.30;;;;;;5011603;28;20200;-67
2023/03/02 01:17:14;;;;;;;7.70;6.35;;;19.30;48.20;;;;;;4995298;28;20208;-68
2023/03/02 01:19:41;;;;;;;6.47;5.88;;;19.20;48.20;;;;;;4993362;28;20606;-67
2023/03/02 01:22:08;;;;;;;5.63;5.13;;;19.20;48.20;;;;;;4979026;28;20203;-67
2023/03/02 01:24:34;;;;;;;6.20;5.65;;;19.20;48.20;;;;;;4995044;28;20184;-68
2023/03/02 01:27:00;;;;;;;5.93;5.40;;;19.20;48.20;;;;;;4994483;28;20267;-68
2023/03/02 01:29:26;;;;;;;6.55;5.85;;;19.20;48.20;;;;;;4978700;28;20184;-68
2023/03/02 01:31:52;;;;;;;6.43;5.82;;;19.20;48.20;;;;;;5000094;28;20652;-68
2023/03/02 01:34:18;;;;;;;5.72;5.20;;;19.20;48.20;;;;;;4978644;28;20184;-68
2023/03/02 01:36:45;;;;;;;6.07;5.47;;;19.20;48.20;;;;;;4978684;28;20234;-68
2023/03/02 01:39:15;;;;;;;5.30;4.90;;;19.20;48.20;;;;;;4978600;28;20192;-67
2023/03/02 01:41:45;;;;;;;6.13;5.53;;;19.20;48.20;;;;;;4978837;28;20235;-68
2023/03/02 01:44:33;;;;;;;5.53;5.03;;;19.20;48.20;;;;;;4994880;28;20187;-68
2023/03/02 01:46:59;;;;;;;6.18;5.60;;;19.20;48.20;;;;;;4978388;28;20208;-68
2023/03/02 01:49:26;;;;;;;6.63;5.65;;;19.20;48.20;;;;;;4975065;28;20200;-68
2023/03/02 01:51:59;;;;;;;5.63;5.13;;;19.20;48.10;;;;;;4975252;28;20344;-68
2023/03/02 01:54:25;;;;;;;6.20;5.70;;;19.20;48.10;;;;;;4978732;28;20330;-68
2023/03/02 01:57:02;;;;;;;6.47;5.88;;;19.20;48.10;;;;;;4978807;28;20227;-68
2023/03/02 01:59:31;;;;;;;6.10;5.55;;;19.20;48.10;;;;;;4978547;28;20176;-68
2023/03/02 02:02:03;;;;;;;6.20;5.70;;;19.20;48.20;;;;;;4994461;28;20221;-68
2023/03/02 02:04:31;;;;;;;6.45;5.85;;;19.20;48.10;;;;;;4978266;28;20731;-69
2023/03/02 02:07:04;;;;;;;6.35;5.75;;;19.20;48.20;;;;;;4978235;28;20285;-68
2023/03/02 02:09:37;;;;;;;6.25;5.10;;;19.20;48.10;;;;;;4978300;28;20184;-68
2023/03/02 02:12:04;;;;;;;6.82;5.47;;;19.20;48.10;;;;;;4978345;28;20565;-68
2023/03/02 02:14:30;;;;;;;7.05;5.78;;;19.20;48.10;;;;;;4977903;28;20238;-68
2023/03/02 02:16:57;;;;;;;5.72;5.22;;;19.20;48.10;;;;;;4978066;28;20211;-68
2023/03/02 02:20:11;;;;;;;7.05;6.03;;;19.20;48.10;;;;;;4978187;28;20199;-68
2023/03/02 02:23:12;;;;;;;6.28;5.53;;;19.20;48.10;;;;;;4978709;28;20195;-68
2023/03/02 02:25:54;;;;;;;5.88;5.38;;;19.20;48.10;;;;;;4978029;28;20187;-68
2023/03/02 02:28:29;;;;;;;5.85;5.35;;;19.20;48.10;;;;;;4978051;28;20708;-68
2023/03/02 02:31:14;;;;;;;5.93;5.43;;;19.10;48.10;;;;;;4978114;28;20207;-68
2023/03/02 02:33:45;;;;;;;6.40;5.72;;;19.10;48.10;;;;;;4978457;28;20223;-68
2023/03/02 02:36:23;;;;;;;5.70;5.18;;;19.20;48.10;;;;;;4978117;28;20215;-67
2023/03/02 02:38:54;;;;;;;5.75;5.15;;;19.20;48.10;;;;;;4978176;28;20187;-68
2023/03/02 02:41:28;;;;;;;6.00;5.40;;;19.20;48.00;;;;;;4977939;28;20287;-68
2023/03/02 02:43:55;;;;;;;5.60;5.10;;;19.20;48.10;;;;;;4978145;28;20195;-69
2023/03/02 02:46:22;;;;;;;5.82;5.32;;;19.20;48.00;;;;;;4993961;28;20188;-68
2023/03/02 02:48:48;;;;;;;6.45;5.88;;;19.20;48.00;;;;;;4977902;28;20570;-68
2023/03/02 02:51:22;;;;;;;6.38;5.78;;;19.20;48.00;;;;;;4978188;28;20212;-67
2023/03/02 02:54:01;;;;;;;5.88;5.38;;;19.10;48.00;;;;;;4978192;28;20219;-68
2023/03/02 02:56:37;;;;;;;6.15;5.50;;;19.10;48.00;;;;;;4980818;28;20184;-67
2023/03/02 02:59:19;;;;;;;5.97;5.47;;;19.20;48.10;;;;;;4978358;28;20267;-68
2023/03/02 03:01:47;;;;;;;6.03;5.53;;;19.20;48.10;;;;;;4994152;28;20196;-69
2023/03/02 03:04:27;;;;;;;6.20;5.60;;;19.10;48.60;;;;;;4977823;28;20188;-67
2023/03/02 03:06:55;;;;;;;5.82;5.32;;;19.10;48.60;;;;;;4977583;28;20215;-68
2023/03/02 03:09:22;;;;;;;6.70;5.60;;;19.20;48.00;;;;;;4977604;28;20226;-67
2023/03/02 03:11:54;;;;;;;6.15;5.55;;;19.20;48.70;;;;;;4977717;28;20280;-68
2023/03/02 03:14:33;;;;;;;6.43;5.82;;;19.10;48.00;;;;;;4977284;28;20266;-67
2023/03/02 03:17:00;;;;;;;6.47;5.88;;;19.20;48.00;;;;;;4991670;28;20207;-68
2023/03/02 03:19:30;;;;;;;5.95;5.35;;;19.10;48.00;;;;;;4977692;28;20219;-67
2023/03/02 03:22:00;;;;;;;6.32;5.30;;;19.10;48.00;;;;;;4974476;28;20730;-68
2023/03/02 03:24:33;;;;;;;5.63;5.13;;;19.10;48.00;;;;;;4977869;28;20192;-68
2023/03/02 03:27:00;;;;;;;5.63;5.13;;;19.10;48.00;;;;;;4975932;28;20279;-68
2023/03/02 03:29:28;;;;;;;5.93;5.32;;;19.10;48.00;;;;;;4978726;28;20198;-67
2023/03/02 03:31:59;;;;;;;5.55;5.05;;;19.10;48.00;;;;;;4975971;28;20195;-67
2023/03/02 03:34:27;;;;;;;5.35;4.85;;;19.10;48.00;;;;;;4980882;28;20184;-68
2023/03/02 03:37:00;;;;;;;5.70;5.10;;;19.10;48.00;;;;;;4980908;28;20200;-67
2023/03/02 03:39:29;;;;;;;6.18;5.45;;;19.10;48.00;;;;;;4979896;28;20196;-68
2023/03/02 03:41:56;;;;;;;6.63;5.88;;;19.10;48.00;;;;;;4977819;28;20246;-67
2023/03/02 03:44:22;;;;;;;6.63;5.95;;;19.10;47.90;;;;;;4979838;28;20192;-67
2023/03/02 03:46:49;;;;;;;6.32;5.68;;;19.10;48.00;;;;;;4971336;28;20205;-68
2023/03/02 03:49:16;;;;;;;6.47;5.82;;;19.10;48.00;;;;;;4980047;28;20565;-67
2023/03/02 03:51:42;;;;;;;6.63;5.88;;;19.10;48.00;;;;;;4973709;28;20297;-67
2023/03/02 03:54:09;;;;;;;6.35;5.75;;;19.10;48.00;;;;;;4993687;28;20277;-68
2023/03/02 03:56:44;;;;;;;5.95;5.35;;;19.10;47.90;;;;;;4980669;28;20627;-68
2023/03/02 03:59:16;;;;;;;6.15;5.55;;;19.10;48.00;;;;;;4977585;28;20195;-68
2023/03/02 04:01:56;;;;;;;5.68;5.18;;;19.10;48.00;;;;;;5002719;28;20188;-68
2023/03/02 04:04:30;;;;;;;5.68;5.18;;;19.10;48.00;;;;;;4985713;28;20195;-68
2023/03/02 04:06:57;;;;;;;6.00;5.25;;;19.10;48.00;;;;;;5021379;22;20285;-70
2023/03/02 04:09:24;;;;;;;6.28;5.68;;;19.10;48.00;;;;;;5015882;28;20199;-70
2023/03/02 04:11:54;;;;;;;6.32;5.72;;;19.10;48.00;;;;;;5032745;28;20191;-71
2023/03/02 04:14:23;;;;;;;5.88;5.38;;;19.10;47.90;;;;;;5016104;28;20196;-70
2023/03/02 04:16:51;;;;;;;5.97;5.38;;;19.10;47.90;;;;;;5032409;28;20190;-70
2023/03/02 04:19:18;;;;;;;6.00;5.50;;;19.10;47.90;;;;;;4999574;28;20211;-71
2023/03/02 04:21:51;;;;;;;6.38;5.70;;;19.10;48.00;;;;;;5003496;28;20191;-70
2023/03/02 04:24:21;;;;;;;6.13;5.57;;;19.10;47.90;;;;;;4999664;28;20187;-70
2023/03/02 04:26:48;;;;;;;6.55;5.85;;;19.10;47.90;;;;;;5015524;28;20183;-71
2023/03/02 04:29:15;;;;;;;6.25;5.65;;;19.10;47.90;;;;;;4999586;28;20207;-69
2023/03/02 04:31:41;;;;;;;5.50;5.00;;;19.10;47.90;;;;;;4999257;28;20205;-71
2023/03/02 04:34:09;;;;;;;6.15;5.55;;;19.10;48.00;;;;;;4999436;28;20192;-71
2023/03/02 04:36:39;;;;;;;6.18;5.60;;;19.10;48.00;;;;;;5015674;28;20190;-70
2023/03/02 04:39:09;;;;;;;6.15;5.20;;;19.00;47.80;;;;;;4998840;28;20184;-71
2023/03/02 04:41:35;;;;;;;6.43;5.82;;;19.10;48.00;;;;;;5015718;28;20194;-70
2023/03/02 04:44:01;;;;;;;6.15;5.55;;;19.00;47.80;;;;;;4984730;28;20230;-70
2023/03/02 04:46:27;;;;;;;6.50;5.90;;;19.10;47.90;;;;;;4999130;28;20237;-71
2023/03/02 04:48:54;;;;;;;6.07;5.47;;;19.00;47.80;;;;;;4998526;28;20215;-71
2023/03/02 04:51:31;;;;;;;6.32;5.72;;;19.10;47.90;;;;;;5015215;28;20217;-70
2023/03/02 04:54:03;;;;;;;5.65;5.18;;;19.10;47.90;;;;;;4983190;28;20238;-71
2023/03/02 04:56:30;;;;;;;6.68;5.97;;;19.10;47.90;;;;;;4998802;28;20222;-70
2023/03/02 04:58:57;;;;;;;7.18;6.22;;;19.10;47.80;;;;;;5001198;28;20203;-70
2023/03/02 05:01:24;;;;;;;6.70;6.13;;;19.00;48.40;;;;;;5015253;28;20203;-71
2023/03/02 05:03:50;;;;;;;6.70;6.10;;;19.10;47.90;;;;;;4998652;28;20247;-70
2023/03/02 05:06:17;;;;;;;6.93;6.22;;;19.10;47.90;;;;;;4999108;28;20246;-71
2023/03/02 05:08:44;;;;;;;6.13;5.63;;;19.10;47.90;;;;;;5007355;28;20273;-71
2023/03/02 05:11:21;;;;;;;5.82;5.32;;;19.10;47.90;;;;;;5015770;28;20241;-71
2023/03/02 05:13:56;;;;;;;6.47;5.55;;;19.10;47.90;;;;;;5007053;28;20279;-70
2023/03/02 05:16:25;;;;;;;6.15;5.65;;;19.10;47.90;;;;;;4998399;28;20190;-72
2023/03/02 05:18:50;;;;;;;6.07;5.57;;;19.10;47.90;;;;;;4999035;28;20203;-71
2023/03/02 05:21:17;;;;;;;6.07;5.47;;;19.10;47.90;;;;;;4998920;28;20221;-71
2023/03/02 05:23:44;;;;;;;6.03;5.53;;;19.10;47.90;;;;;;4991052;28;20195;-71
2023/03/02 05:26:10;;;;;;;5.85;5.35;;;19.10;47.90;;;;;;5015095;28;20712;-71
2023/03/02 05:28:36;;;;;;;6.55;5.93;;;19.10;47.90;;;;;;5014435;28;20212;-71
2023/03/02 05:31:02;;;;;;;6.00;5.50;;;19.10;47.90;;;;;;5015056;28;20257;-71
2023/03/02 05:33:29;;;;;;;6.30;5.70;;;19.10;47.90;;;;;;4998618;28;20195;-71
2023/03/02 05:35:55;;;;;;;6.93;6.07;;;19.10;47.90;;;;;;5014997;28;20183;-71
2023/03/02 05:38:22;;;;;;;6.65;5.72;;;19.10;47.90;;;;;;4998418;28;20249;-71
2023/03/02 05:40:48;;;;;;;6.65;6.03;;;19.00;47.80;;;;;;4998610;28;20205;-72
2023/03/02 05:43:18;;;;;;;6.47;5.85;;;19.10;47.80;;;;;;4998665;28;20552;-71
2023/03/02 05:45:45;;;;;;;6.93;6.25;;;19.10;47.80;;;;;;5006750;28;20627;-71
2023/03/02 05:48:13;;;;;;;6.90;6.20;;;19.10;47.80;;;;;;4998433;28;20218;-71
2023/03/02 05:50:39;;;;;;;7.38;6.53;;;19.10;47.80;;;;;;5031707;28;20214;-71
2023/03/02 05:53:05;;;;;;;6.93;6.25;;;19.10;47.80;;;;;;4998601;28;20194;-71
2023/03/02 05:55:35;;;;;;;6.78;6.18;;;19.10;47.80;;;;;;5032343;28;20183;-72
2023/03/02 05:58:11;;;;;;;6.45;5.85;;;19.10;47.80;;;;;;5014932;28;20203;-71
2023/03/02 06:00:37;;;;;;;6.70;6.10;;;19.10;47.80;;;;;;4998513;28;20226;-70
2023/03/02 06:03:03;;;;;;;6.75;6.15;;;19.00;47.80;;;;;;4998672;28;20221;-71
2023/03/02 06:05:28;;;;;;;6.70;6.10;;;19.10;47.80;;;;;;4998272;28;20676;-72
2023/03/02 06:07:54;;;;;;;6.93;6.22;;;19.10;47.90;;;;;;4998480;28;20210;-72
2023/03/02 06:10:21;;;;;;;6.60;5.90;;;19.10;47.80;;;;;;5032433;28;20214;-72
2023/03/02 06:12:47;;;;;;;6.93;6.30;;;19.10;47.80;;;;;;4998661;28;20182;-72
2023/03/02 06:15:12;;;;;;;7.07;6.38;;;19.10;47.80;;;;;;5014419;28;20187;-72
2023/03/02 06:17:39;;;;;;;7.47;6.70;;;19.10;47.90;;;;;;4997569;28;20203;-71
2023/03/02 06:20:09;;;;;;;7.35;6.65;;;19.10;48.40;;;;;;4997939;28;20198;-71
2023/03/02 06:22:40;;;;;;;7.28;6.57;;;19.10;47.80;;;;;;4997427;28;20217;-72
2023/03/02 06:25:26;;;;;;;6.95;6.35;;;19.10;47.80;;;;;;5013877;28;20282;-72
2023/03/02 06:27:52;;;;;;;7.40;6.70;;;19.10;47.80;;;;;;5007668;28;20228;-72
2023/03/02 06:30:23;;;;;;;7.22;6.53;;;19.10;47.80;;;;;;5017982;28;20223;-72
2023/03/02 06:32:50;;;;;;;7.50;6.75;;;19.10;47.80;;;;;;4997748;28;20647;-72
2023/03/02 06:35:16;;;;;;;7.30;6.60;;;19.10;47.80;;;;;;4997288;28;20183;-73
2023/03/02 06:37:43;;;;;;;8.23;7.43;;;19.10;47.80;;;;;;4996744;28;20253;-72
2023/03/02 06:40:10;;;;;;;8.18;6.97;;;19.10;47.80;;;;;;4988204;28;20191;-72
2023/03/02 06:42:38;;;;;;;6.93;6.32;;;19.10;47.80;;;;;;4995338;28;20257;-72
2023/03/02 06:45:05;;;;;;;7.60;6.90;;;19.10;47.80;;;;;;4995428;28;20187;-71
2023/03/02 06:47:32;;;;;;;7.88;7.18;;;19.10;47.80;;;;;;4995882;28;20234;-73
2023/03/02 06:49:59;;;;;;;7.55;6.85;;;19.10;47.90;;;;;;4996262;28;20215;-72
2023/03/02 06:52:26;;;;;;;7.25;6.45;;;19.10;47.80;;;;;;5002672;28;20197;-72
2023/03/02 06:54:53;;;;;;;7.00;6.30;;;19.10;47.80;;;;;;4997257;28;20178;-72
2023/03/02 06:57:19;;;;;;;7.50;6.80;;;19.10;47.80;;;;;;4997073;28;20623;-72
2023/03/02 06:59:45;;;;;;;7.75;7.00;;;19.10;47.80;;;;;;4996942;28;20237;-72
2023/03/02 07:02:11;;;;;;;7.10;6.40;;;19.10;47.90;;;;;;5015970;28;20183;-72
2023/03/02 07:04:37;;;;;;;7.57;6.78;;;19.10;47.80;;;;;;5001057;28;20179;-72
2023/03/02 07:07:03;;;;;;;7.30;6.60;;;19.10;47.80;;;;;;5000471;28;20215;-72
2023/03/02 07:09:32;;;;;;;6.97;6.38;;;19.10;47.80;;;;;;5017072;28;20186;-72
2023/03/02 07:11:58;;;;;;;8.07;7.30;;;19.10;47.80;;;;;;5000926;28;20183;-72
2023/03/02 07:14:24;;;;;;;8.07;7.28;;;19.10;47.80;;;;;;5000601;28;20221;-72
2023/03/02 07:16:50;;;;;;;7.30;6.60;;;19.10;47.80;;;;;;5000716;28;20187;-73
2023/03/02 07:19:16;;;;;;;7.82;7.00;;;19.10;47.80;;;;;;5017036;28;20191;-72
2023/03/02 07:21:42;;;;;;;7.55;6.85;;;19.10;47.90;;;;;;5000454;28;20202;-72
2023/03/02 07:24:08;;;;;;;7.82;7.13;;;19.10;48.40;;;;;;5016874;28;20686;-72
2023/03/02 07:26:33;;;;;;;7.78;7.07;;;19.10;47.90;;;;;;5000019;28;20180;-72
2023/03/02 07:28:59;;;;;;;8.10;7.30;;;19.10;47.90;;;;;;5003852;28;20345;-72
2023/03/02 07:31:27;;;;;;;8.55;7.63;;;19.10;47.80;;;;;;5000149;28;20310;-72
2023/03/02 07:33:52;;;;;;;8.13;7.15;;;19.10;47.90;;;;;;5000326;28;20603;-72
2023/03/02 07:36:18;;;;;;;7.03;6.38;;;19.10;47.80;;;;;;5016519;28;20195;-72
2023/03/02 07:38:44;;;;;;;7.20;6.50;;;19.10;47.90;;;;;;5016433;28;20199;-72
2023/03/02 07:41:11;;;;;;;7.05;6.45;;;19.10;47.90;;;;;;5000571;28;20547;-72
2023/03/02 07:43:37;;;;;;;8.13;7.22;;;19.20;48.00;;;;;;5000125;28;20187;-72
2023/03/02 07:46:04;;;;;;;7.85;7.05;;;19.10;47.90;;;;;;4995027;28;20204;-72
2023/03/02 07:48:31;;;;;;;7.53;6.80;;;19.10;47.90;;;;;;4996994;28;20219;-72
2023/03/02 07:51:02;;;;;;;7.53;6.82;;;19.10;47.90;;;;;;5000137;28;20241;-72
2023/03/02 07:53:29;;;;;;;7.72;6.93;;;19.20;48.00;;;;;;4999880;28;20191;-72
2023/03/02 07:55:54;;;;;;;7.15;6.43;;;19.20;47.90;;;;;;5016200;28;20188;-72
2023/03/02 07:58:21;;;;;;;8.25;7.47;;;19.20;47.90;;;;;;4999867;28;20291;-72
2023/03/02 08:00:48;;;;;;;7.70;7.00;;;19.20;48.00;;;;;;4999894;28;20199;-71
2023/03/02 08:03:13;;;;;;;7.57;6.88;;;19.10;47.80;;;;;;4999753;28;20646;-72
2023/03/02 08:05:39;;;;;;;7.38;6.68;;;19.20;47.90;;;;;;4999806;28;20230;-72
2023/03/02 08:08:05;;;;;;;8.25;7.43;;;19.20;47.90;;;;;;4999502;28;20238;-72
2023/03/02 08:10:34;;;;;;;7.95;7.20;;;19.20;48.00;;;;;;5015769;28;20215;-72
2023/03/02 08:13:00;;;;;;;8.15;7.45;;;19.20;47.90;;;;;;4990605;28;20193;-72
2023/03/02 08:15:26;;;;;;;7.22;6.55;;;19.20;47.90;;;;;;4999608;28;20187;-72
2023/03/02 08:17:52;;;;;;;7.68;6.90;;;19.20;47.90;;;;;;4999628;28;20199;-72
2023/03/02 08:20:18;;;;;;;8.57;7.78;;;19.20;47.90;;;;;;5015802;28;20191;-72
2023/03/02 08:22:44;;;;;;;7.78;6.97;;;19.20;47.90;;;;;;5015990;28;20333;-72
2023/03/02 08:25:10;;;;;;;8.10;7.30;;;19.20;47.90;;;;;;4999652;28;20214;-72
2023/03/02 08:27:36;;;;;;;7.90;7.10;;;19.20;47.90;;;;;;4999523;28;20218;-72
2023/03/02 08:30:03;;;;;;;8.20;7.40;;;19.20;47.90;;;;;;5001547;28;20212;-72
2023/03/02 08:32:31;;;;;;;7.72;7.03;;;19.20;48.00;;;;;;4999424;28;20196;-72
2023/03/02 08:34:57;;;;;;;7.70;7.00;;;19.20;48.00;;;;;;4999108;28;20194;-73
2023/03/02 08:37:23;;;;;;;7.43;6.82;;;19.20;47.90;;;;;;4999497;28;20297;-72
2023/03/02 08:39:50;;;;;;;7.75;6.97;;;19.20;47.90;;;;;;4999295;28;20674;-72
2023/03/02 08:42:16;;;;;;;7.85;7.00;;;19.20;47.90;;;;;;4999285;28;20187;-72
2023/03/02 08:44:43;;;;;;;7.60;6.90;;;19.20;48.00;;;;;;5001660;28;20317;-72
2023/03/02 08:47:09;;;;;;;7.63;6.63;;;19.20;47.90;;;;;;4998605;28;20199;-72
2023/03/02 08:49:36;;;;;;;8.02;7.22;;;19.20;48.00;;;;;;5015159;28;20572;-73
2023/03/02 08:52:04;;;;;;;7.25;6.57;;;19.20;48.00;;;;;;4999063;28;20187;-73
2023/03/02 08:54:31;;;;;;;7.43;6.78;;;19.20;48.00;;;;;;4999065;28;20296;-73
2023/03/02 08:56:57;;;;;;;8.23;7.45;;;19.20;48.00;;;;;;4990931;28;20651;-72
2023/03/02 08:59:23;;;;;;;7.38;6.68;;;19.20;48.00;;;;;;4998841;28;20222;-72
2023/03/02 09:01:48;;;;;;;8.30;6.93;;;19.30;48.10;;;;;;4998699;28;20195;-72
2023/03/02 09:04:14;;;;;;;7.80;7.00;;;19.20;48.00;;;;;;4998818;28;20191;-72
2023/03/02 09:06:42;;;;;;;7.80;7.05;;;19.20;48.00;;;;;;5015188;28;20187;-72
2023/03/02 09:09:11;;;;;;;8.45;7.53;;;19.20;48.00;;;;;;4998042;28;20187;-72
2023/03/02 09:11:37;;;;;;;9.32;7.90;;;19.20;47.90;;;;;;4997650;28;20222;-72
2023/03/02 09:14:04;;;;;;;7.78;6.97;;;19.30;48.10;;;;;;4997649;28;20179;-72
2023/03/02 09:16:30;;;;;;;8.60;7.10;;;19.30;48.10;;;;;;4997433;28;20237;-72
2023/03/02 09:18:56;;;;;;;8.35;7.53;;;19.20;47.90;;;;;;4997512;28;20297;-72
2023/03/02 09:21:23;;;;;;;8.30;7.50;;;19.30;48.00;;;;;;4997909;28;20187;-72
2023/03/02 09:23:54;;;;;;;7.50;6.80;;;19.30;48.10;;;;;;4997379;28;20210;-72
2023/03/02 09:26:20;;;;;;;7.03;6.32;;;19.30;48.10;;;;;;5011923;28;20191;-72
2023/03/02 09:28:46;;;;;;;7.10;6.40;;;19.30;48.60;;;;;;4997255;28;20211;-72
2023/03/02 09:31:12;;;;;;;7.43;6.72;;;19.30;48.00;;;;;;4997819;28;20211;-72
2023/03/02 09:33:38;;;;;;;7.72;6.95;;;19.30;48.00;;;;;;4997374;28;20291;-72
2023/03/02 09:36:10;;;;;;;7.63;6.93;;;19.30;48.10;;;;;;5013730;28;20187;-72
2023/03/02 09:38:36;;;;;;;7.00;6.40;;;19.30;48.10;;;;;;4997349;28;20691;-72
2023/03/02 09:41:20;;;;;;;7.47;6.75;;;19.30;48.00;;;;;;4997470;28;20175;-72
2023/03/02 09:44:30;;;;;;;8.10;7.38;;;19.30;48.00;;;;;;4997484;28;20195;-71
2023/03/02 09:47:03;;;;;;;7.88;7.03;;;19.30;48.00;;;;;;4997254;28;20234;-72
2023/03/02 09:49:59;;;;;;;7.60;6.88;;;19.30;48.00;;;;;;4997439;28;20653;-72
2023/03/02 09:52:39;;;;;;;7.47;6.78;;;19.30;48.00;;;;;;4997357;28;20222;-72
2023/03/02 09:55:24;;;;;;;6.78;6.18;;;19.30;48.00;;;;;;4990187;28;20278;-71
2023/03/02 09:57:51;;;;;;;8.07;7.35;;;19.40;48.10;;;;;;4997392;28;20207;-72
2023/03/02 10:00:30;;;;;;;7.38;6.78;;;19.30;48.00;;;;;;4997367;28;20184;-72
2023/03/02 10:03:08;;;;;;;7.93;7.15;;;19.30;48.00;;;;;;5021602;28;20183;-72
2023/03/02 10:05:48;;;;;;;8.27;7.47;;;19.40;48.10;;;;;;5013565;28;20191;-72
2023/03/02 10:08:36;;;;;;;7.25;6.63;;;19.40;48.10;;;;;;4998275;23;1078862;-69
2023/03/02 10:11:32;;;;;;;7.32;6.63;;;19.30;48.00;;;;;;5042841;28;20294;-68
2023/03/02 10:14:13;;;;;;;7.75;7.05;;;19.40;48.10;;;;;;5050636;28;20182;-69
2023/03/02 10:17:09;;;;;;;7.97;7.20;;;19.30;48.00;;;;;;5050188;28;20190;-68
2023/03/02 10:19:50;;;;;;;7.22;6.57;;;19.30;48.60;;;;;;5027207;28;20188;-68
2023/03/02 10:22:30;;;;;;;7.63;6.88;;;19.40;48.00;;;;;;5014213;28;20360;-68
2023/03/02 10:25:28;;;;;;;8.07;7.22;;;19.40;48.10;;;;;;5030428;28;20238;-68
2023/03/02 10:28:09;;;;;;;7.45;6.85;;;19.30;48.00;;;;;;5029320;28;20211;-68
2023/03/02 10:30:36;;;;;;;7.28;6.55;;;19.40;48.00;;;;;;5030376;28;20222;-68
2023/03/02 10:33:16;;;;;;;8.00;7.20;;;19.40;48.10;;;;;;5030520;28;20179;-68
2023/03/02 10:35:48;;;;;;;7.95;7.15;;;19.40;48.00;;;;;;5013760;28;20187;-68
2023/03/02 10:38:22;;;;;;;7.55;6.85;;;19.40;48.00;;;;;;5034516;28;20206;-68
2023/03/02 10:41:02;;;;;;;8.38;7.45;;;19.40;48.00;;;;;;5017639;28;20191;-68
2023/03/02 10:43:50;;;;;;;7.65;6.95;;;19.40;48.00;;;;;;5017852;28;20199;-68
2023/03/02 10:46:16;;;;;;;7.20;6.50;;;19.40;48.00;;;;;;5034076;28;20191;-68
2023/03/02 10:49:00;;;;;;;7.25;6.57;;;19.50;48.10;;;;;;5015023;28;20214;-68
2023/03/02 10:51:36;;;;;;;7.20;6.60;;;19.40;48.00;;;;;;5034641;28;20222;-68
2023/03/02 10:54:03;;;;;;;7.47;6.78;;;19.40;48.10;;;;;;5034764;28;20229;-67
2023/03/02 10:56:30;;;;;;;7.78;7.07;;;19.50;48.10;;;;;;5034761;28;20283;-68
2023/03/02 10:59:02;;;;;;;7.45;6.57;;;19.40;48.00;;;;;;5034135;28;20674;-68
2023/03/02 11:01:30;;;;;;;8.18;7.38;;;19.40;48.00;;;;;;5034420;28;20192;-68
2023/03/02 11:03:58;;;;;;;8.07;7.38;;;19.40;48.00;;;;;;5018088;28;20183;-68
2023/03/02 11:06:25;;;;;;;6.80;6.13;;;19.50;48.10;;;;;;5018216;28;20232;-68
2023/03/02 11:09:05;;;;;;;7.05;6.40;;;19.50;48.20;;;;;;5017941;28;20261;-68
2023/03/02 11:11:32;;;;;;;7.88;6.90;;;19.50;48.20;;;;;;5034697;28;20244;-68
2023/03/02 11:14:27;;;;;;;7.25;6.55;;;19.50;48.20;;;;;;5017637;28;20198;-68
2023/03/02 11:16:53;;;;;;;6.35;5.85;;;19.50;48.20;;;;;;5025530;28;20670;-67
2023/03/02 11:19:36;;;;;;;7.10;6.40;;;19.50;48.20;;;;;;5017493;28;20710;-68
2023/03/02 11:22:17;;;;;;;8.30;7.43;;;19.50;48.20;;;;;;5035418;28;20195;-68
2023/03/02 11:24:53;;;;;;;7.95;7.25;;;19.50;48.10;;;;;;5034238;28;20252;-68
2023/03/02 11:27:34;;;;;;;8.32;7.05;;;19.50;48.20;;;;;;5034113;28;20225;-68
2023/03/02 11:30:21;;;;;;;8.55;7.65;;;19.50;48.20;;;;;;5033944;28;20187;-68
2023/03/02 11:32:56;;;;;;;9.95;8.32;;;19.50;48.20;;;;;;5017499;28;20183;-68
2023/03/02 11:35:32;;;;;;;10.65;9.05;;;19.50;48.20;;;;;;5033824;28;20182;-68
2023/03/02 11:38:40;;;;;;;10.55;9.55;;;19.50;48.20;;;;;;5033934;28;20207;-68
2023/03/02 11:41:25;;;;;;;13.20;11.80;;;19.50;48.20;;;;;;5005942;28;20637;-68
2023/03/02 11:43:53;;;;;;;16.63;13.27;;;19.50;48.20;;;;;;5048666;28;20681;-68
2023/03/02 11:46:29;;;;;;;18.85;15.40;;;19.50;48.20;;;;;;5013885;28;20188;-68
2023/03/02 11:49:02;;;;;;;21.90;17.10;;;19.60;48.30;;;;;;5031982;28;20221;-68
2023/03/02 11:51:34;;;;;;;21.27;18.70;;;19.50;48.20;;;;;;5017429;28;20569;-68
2023/03/02 11:54:18;;;;;;;23.40;20.90;;;19.50;48.30;;;;;;5016813;28;20180;-68
2023/03/02 11:56:44;;;;;;;28.15;23.42;;;19.50;48.30;;;;;;5013835;28;20644;-68
2023/03/02 11:59:18;;;;;;;29.98;24.73;;;19.50;48.40;;;;;;5017175;28;20197;-68
2023/03/02 12:01:50;;;;;;;28.17;23.58;;;19.50;48.30;;;;;;5035033;28;20198;-67
2023/03/02 12:04:35;;;;;;;29.60;24.55;;;19.50;48.30;;;;;;5050099;28;20600;-68
2023/03/02 12:07:22;;;;;;;31.55;26.02;;;19.50;48.30;;;;;;5033336;28;20257;-68
2023/03/02 12:10:23;;;;;;;36.90;29.63;;;19.50;48.40;;;;;;5022615;28;20194;-68
2023/03/02 12:13:21;;;;;;;37.28;30.35;;;19.60;48.40;;;;;;5034541;28;20193;-68
2023/03/02 12:15:49;;;;;;;37.50;30.75;;;19.50;48.30;;;;;;5049743;28;20183;-68
2023/03/02 12:18:21;;;;;;;38.33;31.23;;;19.50;48.30;;;;;;5033194;28;20745;-68
2023/03/02 12:21:10;;;;;;;38.03;30.55;;;19.60;48.50;;;;;;5033421;28;20195;-68
2023/03/02 12:24:02;;;;;;;38.83;32.60;;;19.50;48.40;;;;;;5033320;28;20257;-68
2023/03/02 12:26:35;;;;;;;47.33;36.05;;;19.50;48.40;;;;;;5032679;28;20219;-68
2023/03/02 12:29:09;;;;;;;46.38;36.88;;;19.50;48.40;;;;;;5049177;28;20211;-68
2023/03/02 12:31:53;;;;;;;43.65;36.40;;;19.50;48.40;;;;;;5049034;28;20280;-67
2023/03/02 12:35:00;;;;;;;50.35;39.13;;;19.60;48.50;;;;;;5030581;28;20195;-68
2023/03/02 12:37:35;;;;;;;42.78;36.50;;;19.60;48.60;;;;;;5040203;28;20223;-68
2023/03/02 12:40:24;;;;;;;47.60;38.55;;;19.60;48.60;;;;;;5015486;28;20199;-66
2023/03/02 12:43:34;;;;;;;51.17;40.15;;;19.60;48.60;;;;;;5032031;28;20184;-68
2023/03/02 12:46:35;;;;;;;52.55;41.05;;;19.60;48.60;;;;;;5032513;28;20274;-67
2023/03/02 12:49:44;;;;;;;48.22;39.45;;;19.60;48.60;;;;;;5014824;28;20211;-68
2023/03/02 12:52:30;;;;;;;47.42;40.22;;;19.60;48.60;;;;;;5024874;28;20226;-68
2023/03/02 12:55:16;;;;;;;51.97;41.90;;;19.60;48.60;;;;;;5033636;28;20283;-67
2023/03/02 12:58:01;;;;;;;49.85;41.53;;;19.60;48.60;;;;;;5049239;28;20199;-68
2023/03/02 13:00:33;;;;;;;51.58;40.80;;;19.60;48.60;;;;;;5032286;28;20725;-68
2023/03/02 13:03:08;;;;;;;50.97;41.83;;;19.60;48.60;;;;;;5032552;28;20640;-67
2023/03/02 13:05:35;;;;;;;49.67;41.90;;;19.60;48.60;;;;;;5032129;28;20195;-68
2023/03/02 13:08:24;;;;;;;51.88;43.10;;;19.60;48.60;;;;;;5031876;28;20227;-68